To NAV CANADA Home Page Login to a new session Search on AWWS site Disclaimer Vers la page française équivalente Tips FAQ What's new on the site To the Forecasts and Observations / NOTAM section To "File a Flight Plan" website Publications and other links Update of the User's profile FIC Telephone Numbers My Weather Data Folder Route Weather Data Regional Weather Data Local Weather Data To the Forecasts and Observations / NOTAM section
Request Generated 10/19/2018 at 16:33:25 UTC . Weather information available at that time is displayed.

METAR/TAF

NAUJAAT/NU    

METAR CYUT 191600Z 35010KT 15SM FEW020 BKN095 M11/M14 A2975 RMK SC1AC7 SC TR SLP077=
METAR CYUT 191500Z 34009KT 15SM FEW020 BKN095 M12/M15 A2974 RMK SC1AC6 SLP075=
METAR CYUT 191400Z 33008KT 15SM BKN020 M12/M16 A2973 RMK SC6 SLP073=

TAF CYUT 191338Z 1914/1922 35008KT P6SM SCT020 BKN100 TEMPO 1914/1919
4SM -SN BKN020 OVC100
BECMG 1916/1918 34015KT
FM191900 34020G30KT P6SM SCT020 BKN100 TEMPO 1919/1922 2SM -SN
BLSN BKN020 OVC100
RMK NXT FCST BY 191900Z=
Your time UTC time
Weather data provided by Environment Canada and NAV CANADA